createdAt,value
2022-08-09T00:01:54.924Z,2.72
2022-08-09T00:04:35.029Z,4.13
2022-08-09T00:07:03.799Z,5.53
2022-08-09T00:09:40.123Z,4.03
2022-08-09T00:12:08.365Z,6.85
2022-08-09T00:14:39.348Z,6.22
2022-08-09T00:17:08.484Z,4.63
2022-08-09T00:19:57.529Z,14.73
2022-08-09T00:22:25.767Z,4.95
2022-08-09T00:25:12.836Z,4.90
2022-08-09T00:27:43.065Z,5.63
2022-08-09T00:30:24.942Z,5.30
2022-08-09T00:32:54.297Z,7.10
2022-08-09T00:35:24.792Z,8.00
2022-08-09T00:37:54.272Z,3.67
2022-08-09T00:40:22.481Z,6.28
2022-08-09T00:44:16.376Z,6.32
2022-08-09T00:45:54.185Z,5.47
2022-08-09T00:48:22.408Z,10.82
2022-08-09T00:50:52.391Z,5.72
2022-08-09T00:53:23.938Z,6.03
2022-08-09T00:56:05.425Z,4.38
2022-08-09T00:58:39.118Z,6.20
2022-08-09T01:01:15.950Z,7.63
2022-08-09T01:03:49.210Z,8.90
2022-08-09T01:06:22.417Z,8.68
2022-08-09T01:08:57.776Z,5.32
2022-08-09T01:11:35.115Z,7.85
2022-08-09T01:14:05.321Z,6.40
2022-08-09T01:16:37.069Z,7.20
2022-08-09T01:19:17.193Z,6.70
2022-08-09T01:22:16.452Z,6.50
2022-08-09T01:24:50.399Z,9.10
2022-08-09T01:27:23.848Z,6.00
2022-08-09T01:29:55.858Z,5.90
2022-08-09T01:32:31.362Z,4.63
2022-08-09T01:35:07.205Z,5.30
2022-08-09T01:38:08.023Z,8.18
2022-08-09T01:40:37.309Z,4.72
2022-08-09T01:43:06.732Z,4.95
2022-08-09T01:45:35.887Z,4.63
2022-08-09T01:48:16.100Z,4.50
2022-08-09T01:50:48.358Z,6.60
2022-08-09T01:53:19.995Z,6.80
2022-08-09T01:55:48.400Z,5.18
2022-08-09T01:58:18.851Z,6.80
2022-08-09T02:00:54.284Z,9.18
2022-08-09T02:03:22.629Z,7.07
2022-08-09T02:06:03.304Z,6.78
2022-08-09T02:08:38.437Z,5.32
2022-08-09T02:11:21.367Z,5.55
2022-08-09T02:14:06.124Z,6.47
2022-08-09T02:16:52.911Z,6.25
2022-08-09T02:19:38.500Z,6.53
2022-08-09T02:22:11.560Z,5.38
2022-08-09T02:24:39.653Z,4.78
2022-08-09T02:27:10.392Z,4.85
2022-08-09T02:29:42.764Z,7.18
2022-08-09T02:32:12.244Z,5.25
2022-08-09T02:34:55.999Z,5.68
2022-08-09T02:37:31.708Z,5.67
2022-08-09T02:40:09.297Z,5.82
2022-08-09T02:42:39.872Z,4.28
2022-08-09T02:45:12.870Z,4.50
2022-08-09T02:47:58.022Z,6.75
2022-08-09T02:50:28.471Z,4.43
2022-08-09T02:53:01.101Z,4.43
2022-08-09T02:55:46.588Z,10.68
2022-08-09T02:58:36.153Z,4.10
2022-08-09T03:01:10.657Z,4.90
2022-08-09T03:04:16.709Z,6.07
2022-08-09T03:06:29.015Z,5.90
2022-08-09T03:09:04.808Z,7.55
2022-08-09T03:12:05.311Z,7.68
2022-08-09T03:14:28.383Z,9.68
2022-08-09T03:16:58.198Z,8.63
2022-08-09T03:19:52.198Z,6.32
2022-08-09T03:22:25.015Z,5.63
2022-08-09T03:25:21.435Z,6.35
2022-08-09T03:27:50.050Z,4.03
2022-08-09T03:30:29.733Z,5.00
2022-08-09T03:33:12.730Z,5.78
2022-08-09T03:36:15.698Z,6.15
2022-08-09T03:38:42.705Z,6.05
2022-08-09T03:41:15.440Z,4.97
2022-08-09T03:44:03.285Z,6.47
2022-08-09T03:46:35.339Z,4.82
2022-08-09T03:49:07.973Z,4.93
2022-08-09T03:51:56.612Z,5.10
2022-08-09T03:54:31.384Z,5.35
2022-08-09T03:57:02.282Z,5.93
2022-08-09T03:59:43.001Z,5.32
2022-08-09T04:02:26.734Z,5.20
2022-08-09T04:07:53.505Z,4.57
2022-08-09T04:10:28.841Z,4.60
2022-08-09T04:13:01.097Z,4.80
2022-08-09T04:16:17.651Z,4.00
2022-08-09T04:18:22.360Z,6.00
2022-08-09T04:20:55.759Z,7.07
2022-08-09T04:23:25.679Z,5.30
2022-08-09T04:25:54.219Z,5.30
2022-08-09T04:28:33.647Z,4.90
2022-08-09T04:31:09.243Z,5.50
2022-08-09T04:33:47.665Z,4.30
2022-08-09T04:36:25.583Z,7.90
2022-08-09T04:38:55.307Z,7.30
2022-08-09T04:41:24.314Z,5.65
2022-08-09T04:44:06.262Z,5.72
2022-08-09T04:46:58.170Z,9.20
2022-08-09T04:49:52.836Z,8.93
2022-08-09T04:52:26.599Z,10.32
2022-08-09T04:57:25.608Z,7.18
2022-08-09T04:59:55.861Z,9.65
2022-08-09T05:02:27.464Z,6.97
2022-08-09T05:04:56.315Z,8.48
2022-08-09T05:07:29.100Z,10.70
2022-08-09T05:10:01.740Z,8.93
2022-08-09T05:12:35.354Z,7.32
2022-08-09T05:15:11.486Z,8.27
2022-08-09T05:18:37.560Z,4.25
2022-08-09T05:20:29.991Z,7.22
2022-08-09T05:23:55.563Z,7.93
2022-08-09T05:25:51.345Z,9.40
2022-08-09T05:28:20.511Z,4.10
2022-08-09T05:30:51.537Z,3.88
2022-08-09T05:33:19.908Z,6.80
2022-08-09T05:35:57.179Z,5.40
2022-08-09T05:38:28.092Z,8.30
2022-08-09T05:40:57.561Z,5.85
2022-08-09T05:43:31.753Z,5.68
2022-08-09T05:46:01.739Z,6.82
2022-08-09T05:48:33.232Z,7.45
2022-08-09T05:51:43.175Z,9.93
2022-08-09T05:53:57.227Z,7.40
2022-08-09T05:56:28.337Z,7.53
2022-08-09T05:58:59.211Z,7.70
2022-08-09T06:01:33.784Z,6.50
2022-08-09T06:04:05.603Z,6.82
2022-08-09T06:06:34.423Z,6.25
2022-08-09T06:09:10.074Z,9.93
2022-08-09T06:11:57.047Z,11.80
2022-08-09T06:16:59.588Z,6.72
2022-08-09T06:19:37.109Z,11.60
2022-08-09T06:22:06.226Z,5.97
2022-08-09T06:24:45.784Z,8.98
2022-08-09T06:27:18.615Z,6.30
2022-08-09T06:30:04.405Z,6.22
2022-08-09T06:33:00.608Z,5.07
2022-08-09T06:35:35.882Z,5.53
2022-08-09T06:38:15.939Z,7.13
2022-08-09T06:40:45.818Z,4.97
2022-08-09T06:43:14.196Z,3.70
2022-08-09T06:46:07.723Z,9.35
2022-08-09T06:48:31.301Z,4.03
2022-08-09T06:50:59.761Z,5.72
2022-08-09T06:53:33.400Z,3.67
2022-08-09T06:56:09.088Z,5.43
2022-08-09T07:00:49.453Z,8.20
2022-08-09T07:01:35.661Z,3.50
2022-08-09T07:04:20.163Z,2.40
2022-08-09T07:06:48.496Z,2.75
2022-08-09T07:09:55.497Z,2.03
2022-08-09T07:12:17.552Z,3.08
2022-08-09T07:14:50.690Z,2.85
2022-08-09T07:17:19.831Z,1.90
2022-08-09T07:19:48.221Z,2.83
2022-08-09T07:22:18.679Z,1.52
2022-08-09T07:25:05.122Z,3.40
2022-08-09T07:27:42.891Z,3.00
2022-08-09T07:30:21.698Z,2.55
2022-08-09T07:32:53.307Z,2.53
2022-08-09T07:35:22.905Z,3.50
2022-08-09T07:37:50.970Z,1.83
2022-08-09T07:40:26.972Z,1.33
2022-08-09T07:43:03.458Z,2.58
2022-08-09T07:45:42.665Z,1.65
2022-08-09T07:48:22.434Z,2.65
2022-08-09T07:51:09.560Z,2.03
2022-08-09T07:54:05.178Z,2.45
2022-08-09T07:56:34.646Z,2.55
2022-08-09T07:59:14.072Z,2.15
2022-08-09T08:01:55.740Z,1.77
2022-08-09T08:04:25.567Z,1.88
2022-08-09T08:07:27.128Z,2.28
2022-08-09T08:09:53.371Z,1.58
2022-08-09T08:12:36.468Z,2.40
2022-08-09T08:15:07.561Z,1.35
2022-08-09T08:17:54.462Z,2.60
2022-08-09T08:20:27.265Z,2.63
2022-08-09T08:25:43.902Z,1.40
2022-08-09T08:28:14.927Z,1.02
2022-08-09T08:30:44.943Z,1.30
2022-08-09T08:33:21.785Z,1.98
2022-08-09T08:35:59.531Z,1.85
2022-08-09T08:38:28.882Z,1.58
2022-08-09T08:40:57.335Z,1.35
2022-08-09T08:43:27.183Z,1.27
2022-08-09T08:46:00.133Z,1.13
2022-08-09T08:48:51.870Z,1.15
2022-08-09T08:51:22.575Z,1.15
2022-08-09T08:54:02.657Z,1.95
2022-08-09T08:56:32.161Z,1.10
2022-08-09T08:59:01.568Z,1.33
2022-08-09T09:01:52.426Z,1.30
2022-08-09T09:04:26.808Z,1.23
2022-08-09T09:06:56.934Z,1.23
2022-08-09T09:09:57.792Z,1.23
2022-08-09T09:12:16.934Z,1.45
2022-08-09T09:14:45.275Z,1.20
2022-08-09T09:17:16.339Z,1.27
2022-08-09T09:19:44.675Z,1.15
2022-08-09T09:22:15.864Z,1.35
2022-08-09T09:24:44.887Z,1.30
2022-08-09T09:28:02.787Z,1.15
2022-08-09T09:30:22.775Z,1.13
2022-08-09T09:33:23.975Z,1.08
2022-08-09T09:36:01.658Z,1.00
2022-08-09T09:38:44.663Z,2.42
2022-08-09T09:41:12.852Z,1.42
2022-08-09T09:44:10.302Z,0.93
2022-08-09T09:46:50.558Z,1.00
2022-08-09T09:49:31.913Z,0.90
2022-08-09T09:52:16.353Z,1.42
2022-08-09T09:55:02.661Z,1.80
2022-08-09T09:58:00.979Z,1.25
2022-08-09T10:00:33.801Z,1.10
2022-08-09T10:03:09.215Z,1.30
2022-08-09T10:06:05.172Z,3.83
2022-08-09T10:08:54.280Z,1.08
2022-08-09T10:12:00.613Z,1.45
2022-08-09T10:14:30.464Z,1.40
2022-08-09T10:17:11.519Z,1.10
2022-08-09T10:19:52.830Z,1.17
2022-08-09T10:22:34.601Z,1.45
2022-08-09T10:25:11.120Z,1.33
2022-08-09T10:27:45.202Z,1.23
2022-08-09T10:32:00.075Z,1.30
2022-08-09T10:33:29.847Z,1.25
2022-08-09T10:36:00.885Z,1.15
2022-08-09T10:38:43.191Z,2.05
2022-08-09T10:41:20.593Z,1.60
2022-08-09T10:44:00.889Z,1.55
2022-08-09T10:46:55.614Z,1.83
2022-08-09T10:49:50.283Z,1.88
2022-08-09T10:52:30.907Z,1.45
2022-08-09T10:55:19.476Z,1.00
2022-08-09T10:57:51.713Z,1.60
2022-08-09T11:00:37.538Z,1.63
2022-08-09T11:03:27.317Z,1.10
2022-08-09T11:06:22.983Z,1.42
2022-08-09T11:08:53.961Z,1.67
2022-08-09T11:11:24.123Z,1.48
2022-08-09T11:14:29.003Z,1.35
2022-08-09T11:17:00.261Z,1.10
2022-08-09T11:20:11.619Z,1.33
2022-08-09T11:23:07.140Z,1.00
2022-08-09T11:25:47.473Z,1.40
2022-08-09T11:28:55.815Z,1.30
2022-08-09T11:31:49.413Z,1.70
2022-08-09T11:34:36.582Z,1.20
2022-08-09T11:37:07.314Z,1.30
2022-08-09T11:40:02.887Z,1.40
2022-08-09T11:42:46.999Z,1.42
2022-08-09T11:45:21.966Z,1.13
2022-08-09T11:47:50.595Z,1.15
2022-08-09T11:50:54.792Z,1.00
2022-08-09T11:53:28.031Z,1.38
2022-08-09T11:56:41.468Z,1.10
2022-08-09T11:59:12.360Z,1.10
2022-08-09T12:02:34.305Z,1.70
2022-08-09T12:04:37.531Z,1.50
2022-08-09T12:07:12.096Z,1.10
2022-08-09T12:09:50.494Z,1.10
2022-08-09T12:12:28.595Z,1.30
2022-08-09T12:15:08.009Z,1.42
2022-08-09T12:17:45.671Z,1.13
2022-08-09T12:20:22.407Z,1.65
2022-08-09T12:22:51.395Z,1.13
2022-08-09T12:25:36.420Z,1.48
2022-08-09T12:29:12.072Z,1.50
2022-08-09T12:30:58.806Z,2.08
2022-08-09T12:33:51.405Z,1.20
2022-08-09T12:36:27.727Z,0.98
2022-08-09T12:39:00.826Z,1.20
2022-08-09T12:41:30.382Z,1.02
2022-08-09T12:44:06.390Z,1.50
2022-08-09T12:46:36.189Z,1.38
2022-08-09T12:49:07.265Z,1.50
2022-08-09T12:52:00.064Z,1.00
2022-08-09T12:54:23.991Z,1.27
2022-08-09T12:56:54.062Z,1.23
2022-08-09T12:59:23.292Z,1.30
2022-08-09T13:02:02.620Z,1.17
2022-08-09T13:04:37.988Z,1.20
2022-08-09T13:07:13.804Z,1.15
2022-08-09T13:09:52.782Z,1.20
2022-08-09T13:12:24.099Z,1.10
2022-08-09T13:14:54.931Z,1.80
2022-08-09T13:17:58.627Z,1.58
2022-08-09T13:20:16.303Z,1.10
2022-08-09T13:23:05.677Z,1.40
2022-08-09T13:25:42.622Z,1.25
2022-08-09T13:28:18.745Z,1.20
2022-08-09T13:32:15.937Z,1.05
2022-08-09T13:33:54.384Z,1.38
2022-08-09T13:36:41.134Z,1.92
2022-08-09T13:41:17.364Z,1.60
2022-08-09T13:42:03.750Z,1.10
2022-08-09T13:44:32.076Z,1.35
2022-08-09T13:47:27.063Z,1.10
2022-08-09T13:49:56.500Z,1.65
2022-08-09T13:52:27.524Z,1.38
2022-08-09T13:55:00.898Z,1.00
2022-08-09T13:57:35.632Z,1.40
2022-08-09T14:00:06.979Z,1.00
2022-08-09T14:02:36.169Z,1.10
2022-08-09T14:05:13.505Z,1.55
2022-08-09T14:08:01.509Z,1.15
2022-08-09T14:10:46.100Z,1.20
2022-08-09T14:13:21.882Z,1.20
2022-08-09T14:16:10.131Z,1.55
2022-08-09T14:18:38.768Z,1.53
2022-08-09T14:21:17.272Z,1.50
2022-08-09T14:23:55.144Z,1.10
2022-08-09T14:26:30.294Z,1.40
2022-08-09T14:29:02.603Z,1.10
2022-08-09T14:31:35.730Z,1.00
2022-08-09T14:34:31.760Z,1.48
2022-08-09T14:37:02.057Z,1.10
2022-08-09T14:39:45.883Z,2.22
2022-08-09T14:42:30.134Z,1.55
2022-08-09T14:46:57.171Z,2.33
2022-08-09T14:47:57.293Z,1.17
2022-08-09T14:50:28.485Z,1.58
2022-08-09T14:52:56.534Z,1.20
2022-08-09T14:55:31.944Z,1.33
2022-08-09T14:58:03.276Z,1.20
2022-08-09T15:00:32.358Z,1.23
2022-08-09T15:03:01.886Z,1.33
2022-08-09T15:05:32.094Z,1.20
2022-08-09T15:08:00.048Z,1.10
2022-08-09T15:10:31.595Z,1.33
2022-08-09T15:12:59.944Z,1.13
2022-08-09T15:15:29.730Z,1.05
2022-08-09T15:18:02.610Z,1.20
2022-08-09T15:21:57.535Z,1.25
2022-08-09T15:24:02.953Z,1.25
2022-08-09T15:26:19.091Z,1.30
2022-08-09T15:28:56.511Z,1.23
2022-08-09T15:31:40.408Z,1.08
2022-08-09T15:34:27.431Z,1.30
2022-08-09T15:36:58.683Z,1.17
2022-08-09T15:39:43.880Z,1.17
2022-08-09T15:42:16.143Z,1.00
2022-08-09T15:44:47.191Z,1.40
2022-08-09T15:47:23.504Z,1.20
2022-08-09T15:50:05.017Z,1.33
2022-08-09T15:52:34.619Z,1.15
2022-08-09T15:55:02.973Z,1.23
2022-08-09T15:57:35.350Z,1.13
2022-08-09T16:00:15.257Z,1.50
2022-08-09T16:02:53.587Z,1.30
2022-08-09T16:05:22.976Z,1.27
2022-08-09T16:07:51.292Z,1.40
2022-08-09T16:10:54.756Z,1.63
2022-08-09T16:13:18.377Z,1.27
2022-08-09T16:16:10.788Z,1.55
2022-08-09T16:18:35.071Z,1.30
2022-08-09T16:21:03.083Z,1.30
2022-08-09T16:23:31.320Z,1.10
2022-08-09T16:26:01.049Z,1.17
2022-08-09T16:28:32.377Z,1.58
2022-08-09T16:31:00.373Z,1.25
2022-08-09T16:33:30.927Z,1.00
2022-08-09T16:36:08.450Z,1.80
2022-08-09T16:38:39.997Z,1.20
2022-08-09T16:41:08.094Z,1.42
2022-08-09T16:43:46.754Z,1.17
2022-08-09T16:46:18.419Z,1.17
2022-08-09T16:48:54.001Z,1.30
2022-08-09T16:51:27.455Z,1.25
2022-08-09T16:54:25.187Z,1.45
2022-08-09T16:56:49.434Z,1.33
2022-08-09T16:59:19.500Z,1.10
2022-08-09T17:01:51.377Z,1.25
2022-08-09T17:04:26.066Z,1.08
2022-08-09T17:08:43.669Z,1.00
2022-08-09T17:09:47.436Z,1.00
2022-08-09T17:12:16.043Z,1.00
2022-08-09T17:14:47.862Z,1.00
2022-08-09T17:17:26.922Z,1.05
2022-08-09T17:20:29.289Z,1.27
2022-08-09T17:22:49.969Z,1.08
2022-08-09T17:25:19.249Z,1.48
2022-08-09T17:27:48.930Z,1.10
2022-08-09T17:30:19.835Z,1.40
2022-08-09T17:32:48.545Z,1.10
2022-08-09T17:35:16.610Z,1.48
2022-08-09T17:38:11.635Z,1.13
2022-08-09T17:40:34.547Z,1.30
2022-08-09T17:43:03.265Z,0.75
2022-08-09T17:46:03.738Z,1.48
2022-08-09T17:48:28.806Z,0.85
2022-08-09T17:51:01.717Z,1.15
2022-08-09T17:53:43.479Z,1.30
2022-08-09T17:56:20.732Z,1.23
2022-08-09T17:58:48.773Z,1.30
2022-08-09T18:01:23.169Z,1.00
2022-08-09T18:03:54.599Z,1.33
2022-08-09T18:06:31.068Z,4.93
2022-08-09T18:09:01.943Z,7.28
2022-08-09T18:12:05.085Z,8.73
2022-08-09T18:14:20.657Z,15.40
2022-08-09T18:16:54.922Z,7.60
2022-08-09T18:20:55.189Z,8.98
2022-08-09T18:22:17.295Z,10.02
2022-08-09T18:24:46.513Z,10.73
2022-08-09T18:27:33.675Z,7.68
2022-08-09T18:30:40.619Z,9.48
2022-08-09T18:32:54.305Z,12.07
2022-08-09T18:35:59.900Z,8.63
2022-08-09T18:38:11.821Z,10.63
2022-08-09T18:40:40.752Z,12.88
2022-08-09T18:43:10.261Z,10.45
2022-08-09T18:46:49.930Z,10.52
2022-08-09T18:48:30.436Z,8.65
2022-08-09T18:51:01.255Z,8.18
2022-08-09T18:53:56.966Z,10.02
2022-08-09T18:56:20.095Z,7.10
2022-08-09T18:58:56.576Z,11.50
2022-08-09T19:01:24.668Z,6.95
2022-08-09T19:04:01.196Z,7.20
2022-08-09T19:06:34.722Z,11.50
2022-08-09T19:09:06.517Z,11.15
2022-08-09T19:11:35.390Z,8.82
2022-08-09T19:14:06.409Z,8.25
2022-08-09T19:16:36.333Z,5.78
2022-08-09T19:19:21.287Z,7.53
2022-08-09T19:22:04.750Z,7.95
2022-08-09T19:24:39.292Z,6.22
2022-08-09T19:27:23.199Z,8.95
2022-08-09T19:30:22.117Z,7.38
2022-08-09T19:32:40.298Z,7.53
2022-08-09T19:35:10.275Z,12.23
2022-08-09T19:37:41.073Z,10.60
2022-08-09T19:40:34.472Z,9.38
2022-08-09T19:43:05.347Z,8.18
2022-08-09T19:45:40.373Z,8.05
2022-08-09T19:48:10.723Z,5.32
2022-08-09T19:50:50.186Z,7.10
2022-08-09T19:53:21.493Z,6.57
2022-08-09T19:56:03.332Z,9.30
2022-08-09T19:58:35.795Z,6.75
2022-08-09T20:01:04.007Z,6.28
2022-08-09T20:04:17.373Z,6.45
2022-08-09T20:06:29.744Z,10.88
2022-08-09T20:08:59.672Z,11.52
2022-08-09T20:11:43.453Z,6.80
2022-08-09T20:14:16.512Z,7.47
2022-08-09T20:16:53.829Z,5.82
2022-08-09T20:19:48.599Z,4.07
2022-08-09T20:22:14.294Z,5.18
2022-08-09T20:24:42.997Z,7.10
2022-08-09T20:27:22.587Z,3.75
2022-08-09T20:29:50.701Z,8.02
2022-08-09T20:32:29.831Z,5.20
2022-08-09T20:35:07.472Z,7.13
2022-08-09T20:38:21.086Z,6.75
2022-08-09T20:40:27.691Z,4.13
2022-08-09T20:43:00.108Z,4.53
2022-08-09T20:45:59.385Z,6.22
2022-08-09T20:48:30.670Z,4.75
2022-08-09T20:51:01.296Z,3.92
2022-08-09T20:53:37.318Z,5.32
2022-08-09T20:56:20.835Z,4.45
2022-08-09T20:58:50.626Z,3.60
2022-08-09T21:01:35.466Z,4.93
2022-08-09T21:05:55.075Z,4.13
2022-08-09T21:06:59.067Z,3.50
2022-08-09T21:09:55.620Z,4.10
2022-08-09T21:15:14.223Z,4.43
2022-08-09T21:18:11.465Z,3.58
2022-08-09T21:20:30.887Z,3.60
2022-08-09T21:23:00.287Z,8.07
2022-08-09T21:25:55.386Z,4.20
2022-08-09T21:28:34.226Z,3.70
2022-08-09T21:31:17.344Z,4.07
2022-08-09T21:33:52.442Z,3.37
2022-08-09T21:36:25.741Z,6.15
2022-08-09T21:38:57.655Z,3.83
2022-08-09T21:42:04.189Z,3.72
2022-08-09T21:44:32.959Z,5.13
2022-08-09T21:47:03.958Z,4.22
2022-08-09T21:49:40.094Z,4.07
2022-08-09T21:52:16.578Z,4.38
2022-08-09T21:54:56.869Z,3.97
2022-08-09T21:57:39.169Z,3.75
2022-08-09T22:00:26.135Z,4.07
2022-08-09T22:02:58.111Z,4.38
2022-08-09T22:05:36.809Z,3.80
2022-08-09T22:08:13.667Z,3.47
2022-08-09T22:11:00.388Z,4.10
2022-08-09T22:13:34.533Z,3.90
2022-08-09T22:16:04.817Z,4.55
2022-08-09T22:18:37.089Z,4.68
2022-08-09T22:21:09.231Z,3.10
2022-08-09T22:23:59.632Z,5.82
2022-08-09T22:26:35.603Z,4.53
2022-08-09T22:29:09.088Z,3.95
2022-08-09T22:31:37.704Z,5.47
2022-08-09T22:34:14.901Z,4.68
2022-08-09T22:36:45.578Z,3.35
2022-08-09T22:39:46.876Z,4.10
2022-08-09T22:42:06.177Z,4.97
2022-08-09T22:44:45.869Z,3.55
2022-08-09T22:48:16.875Z,5.13
2022-08-09T22:50:01.881Z,3.97
2022-08-09T22:52:30.241Z,3.75
2022-08-09T22:55:00.103Z,4.07
2022-08-09T22:57:35.524Z,4.10
2022-08-09T23:00:06.351Z,4.50
2022-08-09T23:02:39.970Z,4.13
2022-08-09T23:05:13.088Z,3.85
2022-08-09T23:08:22.352Z,3.78
2022-08-09T23:13:17.640Z,3.15
2022-08-09T23:16:02.597Z,3.67
2022-08-09T23:18:31.802Z,3.30
2022-08-09T23:20:59.798Z,4.45
2022-08-09T23:23:27.752Z,4.90
2022-08-09T23:25:55.881Z,3.20
2022-08-09T23:28:23.983Z,3.33
2022-08-09T23:30:53.427Z,4.50
2022-08-09T23:33:21.525Z,4.00
2022-08-09T23:36:05.519Z,4.68
2022-08-09T23:38:35.394Z,4.00
2022-08-09T23:41:03.856Z,4.80
2022-08-09T23:43:31.930Z,5.05
2022-08-09T23:46:01.606Z,3.70
2022-08-09T23:48:29.664Z,4.45
2022-08-09T23:50:57.692Z,3.40
2022-08-09T23:53:25.707Z,3.17
2022-08-09T23:56:00.117Z,4.07
2022-08-09T23:58:29.998Z,5.22
